createdAt,value
2023-03-31T00:01:42.688Z,12.90
2023-03-31T00:06:46.406Z,12.90
2023-03-31T00:11:51.408Z,12.90
2023-03-31T00:16:54.581Z,12.90
2023-03-31T00:22:02.055Z,12.90
2023-03-31T00:27:07.430Z,12.80
2023-03-31T00:32:10.929Z,12.80
2023-03-31T00:37:16.119Z,12.80
2023-03-31T00:42:21.000Z,12.90
2023-03-31T00:47:24.359Z,12.90
2023-03-31T00:52:35.763Z,12.80
2023-03-31T00:57:42.761Z,12.80
2023-03-31T01:02:52.499Z,12.70
2023-03-31T01:07:57.243Z,12.70
2023-03-31T01:13:01.903Z,12.70
2023-03-31T01:18:06.123Z,12.60
2023-03-31T01:23:39.171Z,12.50
2023-03-31T01:28:52.514Z,12.50
2023-03-31T01:34:25.105Z,12.40
2023-03-31T01:40:10.460Z,12.40
2023-03-31T01:45:24.050Z,12.40
2023-03-31T01:50:35.683Z,12.50
2023-03-31T01:55:43.599Z,12.50
2023-03-31T02:00:52.026Z,12.50
2023-03-31T02:05:58.344Z,12.50
2023-03-31T02:11:03.705Z,12.50
2023-03-31T02:16:11.879Z,12.50
2023-03-31T02:21:16.550Z,12.50
2023-03-31T02:26:25.534Z,12.50
2023-03-31T02:31:37.735Z,12.60
2023-03-31T02:36:42.626Z,12.60
2023-03-31T02:41:47.788Z,12.60
2023-03-31T02:46:51.421Z,12.60
2023-03-31T02:52:08.946Z,12.60
2023-03-31T02:57:49.221Z,12.50
2023-03-31T03:03:09.921Z,12.50
2023-03-31T03:08:23.582Z,12.50
2023-03-31T03:13:36.821Z,12.50
2023-03-31T03:18:39.968Z,12.50
2023-03-31T03:23:43.333Z,12.50
2023-03-31T03:28:47.864Z,12.50
2023-03-31T03:33:51.077Z,12.50
2023-03-31T03:38:54.400Z,12.50
2023-03-31T03:43:59.009Z,12.40
2023-03-31T03:49:02.278Z,12.50
2023-03-31T03:54:05.586Z,12.50
2023-03-31T03:59:10.098Z,12.50
2023-03-31T04:04:13.206Z,12.60
2023-03-31T04:09:16.440Z,12.70
2023-03-31T04:14:20.983Z,12.80
2023-03-31T04:19:26.038Z,12.90
2023-03-31T04:24:30.872Z,12.90
2023-03-31T04:29:37.316Z,12.90
2023-03-31T04:34:40.573Z,13.00
2023-03-31T04:39:46.792Z,12.90
2023-03-31T04:44:51.248Z,12.90
2023-03-31T04:49:56.841Z,12.90
2023-03-31T04:54:59.920Z,12.90
2023-03-31T05:00:07.359Z,12.80
2023-03-31T05:05:10.956Z,12.70
2023-03-31T05:10:17.084Z,12.70
2023-03-31T05:15:21.571Z,12.70
2023-03-31T05:20:25.211Z,12.60
2023-03-31T05:25:32.798Z,12.70
2023-03-31T05:30:37.813Z,12.70
2023-03-31T05:35:41.059Z,12.70
2023-03-31T05:40:44.200Z,12.70
2023-03-31T05:45:48.677Z,12.80
2023-03-31T05:50:51.786Z,12.80
2023-03-31T05:55:59.590Z,12.80
2023-03-31T06:01:08.144Z,12.80
2023-03-31T06:06:14.800Z,12.80
2023-03-31T06:11:20.567Z,12.80
2023-03-31T06:16:25.075Z,12.80
2023-03-31T06:21:28.479Z,12.90
2023-03-31T06:26:31.566Z,12.90
2023-03-31T06:31:36.505Z,12.90
2023-03-31T06:36:39.678Z,12.90
2023-03-31T06:41:42.801Z,12.90
2023-03-31T06:46:47.495Z,12.90
2023-03-31T06:51:50.834Z,13.00
2023-03-31T06:56:54.056Z,13.00
2023-03-31T07:01:58.667Z,13.10
2023-03-31T07:07:02.027Z,13.10
2023-03-31T07:12:05.857Z,13.10
2023-03-31T07:17:10.328Z,13.10
2023-03-31T07:22:13.440Z,13.10
2023-03-31T07:27:16.739Z,13.00
2023-03-31T07:32:22.430Z,13.10
2023-03-31T07:37:25.646Z,13.00
2023-03-31T07:42:28.738Z,13.00
2023-03-31T07:47:33.712Z,12.90
2023-03-31T07:52:37.234Z,12.90
2023-03-31T07:57:41.541Z,12.90
2023-03-31T08:02:46.199Z,12.90
2023-03-31T08:07:51.570Z,12.90
2023-03-31T08:12:55.818Z,12.90
2023-03-31T08:18:00.459Z,13.00
2023-03-31T08:23:05.480Z,13.10
2023-03-31T08:28:10.905Z,13.20
2023-03-31T08:33:15.833Z,13.30
2023-03-31T08:38:18.943Z,13.40
2023-03-31T08:43:30.112Z,13.50
2023-03-31T08:48:45.246Z,13.50
2023-03-31T08:53:56.274Z,13.60
2023-03-31T08:59:02.306Z,13.50
2023-03-31T09:04:23.907Z,13.50
2023-03-31T09:09:35.073Z,13.50
2023-03-31T09:14:41.134Z,13.50
2023-03-31T09:19:50.164Z,13.60
2023-03-31T09:24:58.998Z,13.70
2023-03-31T09:30:05.888Z,13.70
2023-03-31T09:35:18.649Z,13.90
2023-03-31T09:40:24.153Z,14.00
2023-03-31T09:45:27.302Z,14.20
2023-03-31T09:50:34.550Z,14.50
2023-03-31T09:55:45.766Z,14.80
2023-03-31T10:01:00.988Z,15.10
2023-03-31T10:06:11.307Z,15.40
2023-03-31T10:11:14.919Z,15.70
2023-03-31T10:16:24.701Z,16.10
2023-03-31T10:21:38.612Z,16.30
2023-03-31T10:26:42.158Z,16.40
2023-03-31T10:31:45.626Z,16.60
2023-03-31T10:36:52.899Z,16.80
2023-03-31T10:41:56.139Z,17.00
2023-03-31T10:47:06.418Z,17.20
2023-03-31T10:52:20.031Z,17.30
2023-03-31T10:57:38.622Z,17.40
2023-03-31T11:03:13.051Z,17.60
2023-03-31T11:08:30.818Z,17.70
2023-03-31T11:13:39.976Z,17.70
2023-03-31T11:19:03.503Z,17.80
2023-03-31T11:24:18.479Z,17.80
2023-03-31T11:29:33.681Z,17.80
2023-03-31T11:34:53.170Z,17.80
2023-03-31T11:40:10.570Z,17.80
2023-03-31T11:45:17.880Z,17.70
2023-03-31T11:50:23.959Z,17.80
2023-03-31T11:55:31.767Z,17.80
2023-03-31T12:00:39.653Z,18.00
2023-03-31T12:05:47.232Z,18.10
2023-03-31T12:10:55.774Z,18.30
2023-03-31T12:16:06.282Z,18.40
2023-03-31T12:21:11.428Z,18.60
2023-03-31T12:26:31.175Z,18.80
2023-03-31T12:31:37.098Z,18.90
2023-03-31T12:36:55.266Z,19.00
2023-03-31T12:42:32.277Z,19.20
2023-03-31T12:48:02.333Z,19.20
2023-03-31T12:53:14.985Z,19.30
2023-03-31T12:58:42.626Z,19.20
2023-03-31T13:03:52.081Z,19.20
2023-03-31T13:08:57.133Z,19.20
2023-03-31T13:14:04.860Z,19.10
2023-03-31T13:19:08.312Z,19.00
2023-03-31T13:24:11.481Z,18.80
2023-03-31T13:29:25.337Z,18.50
2023-03-31T13:34:31.178Z,18.20
2023-03-31T13:40:12.435Z,17.70
2023-03-31T13:45:27.357Z,17.20
2023-03-31T13:50:59.967Z,16.70
2023-03-31T13:56:20.465Z,16.40
2023-03-31T14:01:52.956Z,16.20
2023-03-31T14:06:59.726Z,16.10
2023-03-31T14:12:19.849Z,16.20
2023-03-31T14:17:27.798Z,16.20
2023-03-31T14:22:44.589Z,16.30
2023-03-31T14:28:02.503Z,16.40
2023-03-31T14:33:16.832Z,16.60
2023-03-31T14:38:22.406Z,16.70
2023-03-31T14:43:29.279Z,16.90
2023-03-31T14:48:38.610Z,17.00
2023-03-31T14:53:43.409Z,17.10
2023-03-31T14:58:51.646Z,17.20
2023-03-31T15:03:57.077Z,17.20
2023-03-31T15:09:05.123Z,17.10
2023-03-31T15:14:10.390Z,17.10
2023-03-31T15:19:17.466Z,17.10
2023-03-31T15:24:21.469Z,17.10
2023-03-31T15:29:29.187Z,17.20
2023-03-31T15:34:36.997Z,17.20
2023-03-31T15:39:40.790Z,17.30
2023-03-31T15:44:47.184Z,17.40
2023-03-31T15:49:53.946Z,17.50
2023-03-31T15:54:58.759Z,17.50
2023-03-31T16:00:02.436Z,17.50
2023-03-31T16:10:35.358Z,17.40
2023-03-31T16:15:43.477Z,17.30
2023-03-31T16:20:56.097Z,17.00
2023-03-31T16:25:59.980Z,16.70
2023-03-31T16:31:05.316Z,16.50
2023-03-31T16:36:13.199Z,16.40
2023-03-31T16:41:17.426Z,16.20
2023-03-31T16:46:21.030Z,16.10
2023-03-31T16:51:26.264Z,15.90
2023-03-31T16:56:29.335Z,15.80
2023-03-31T17:01:32.515Z,15.70
2023-03-31T17:06:37.049Z,15.60
2023-03-31T17:11:40.221Z,15.40
2023-03-31T17:16:48.392Z,15.40
2023-03-31T17:21:53.533Z,15.30
2023-03-31T17:26:57.538Z,15.30
2023-03-31T17:32:01.220Z,15.20
2023-03-31T17:37:05.764Z,15.20
2023-03-31T17:42:08.922Z,15.10
2023-03-31T17:47:12.029Z,15.10
2023-03-31T17:52:16.986Z,15.00
2023-03-31T17:57:20.143Z,15.00
2023-03-31T18:02:23.341Z,14.90
2023-03-31T18:07:28.440Z,14.80
2023-03-31T18:12:31.542Z,14.80
2023-03-31T18:17:36.577Z,14.70
2023-03-31T18:22:41.127Z,14.60
2023-03-31T18:27:44.467Z,14.50
2023-03-31T18:32:47.747Z,14.40
2023-03-31T18:37:54.859Z,14.30
2023-03-31T18:42:57.985Z,14.10
2023-03-31T18:48:02.484Z,14.10
2023-03-31T18:53:07.111Z,13.90
2023-03-31T18:58:10.442Z,13.80
2023-03-31T19:03:13.853Z,13.70
2023-03-31T19:08:18.482Z,13.70
2023-03-31T19:13:22.017Z,13.60
2023-03-31T19:18:26.359Z,13.60
2023-03-31T19:23:32.875Z,13.60
2023-03-31T19:28:36.112Z,13.50
2023-03-31T19:33:39.322Z,13.50
2023-03-31T19:38:44.218Z,13.50
2023-03-31T19:43:47.941Z,13.50
2023-03-31T19:48:51.255Z,13.50
2023-03-31T19:53:56.907Z,13.40
2023-03-31T19:59:00.254Z,13.30
2023-03-31T20:04:03.627Z,13.20
2023-03-31T20:09:08.161Z,13.10
2023-03-31T20:14:11.298Z,13.10
2023-03-31T20:19:16.379Z,13.10
2023-03-31T20:24:21.533Z,13.10
2023-03-31T20:29:25.217Z,13.10
2023-03-31T20:34:28.562Z,13.10
2023-03-31T20:39:33.070Z,13.10
2023-03-31T20:44:36.460Z,13.10
2023-03-31T20:49:39.551Z,13.10
2023-03-31T20:54:44.114Z,13.20
2023-03-31T20:59:47.248Z,13.20
2023-03-31T21:04:51.320Z,13.20
2023-03-31T21:09:55.981Z,13.20
2023-03-31T21:14:59.120Z,13.20
2023-03-31T21:20:03.541Z,13.20
2023-03-31T21:25:09.422Z,13.20
2023-03-31T21:30:14.047Z,13.20
2023-03-31T21:35:17.907Z,13.10
2023-03-31T21:40:22.406Z,13.10
2023-03-31T21:45:25.886Z,13.10
2023-03-31T21:50:29.025Z,13.10
2023-03-31T21:55:34.064Z,13.00
2023-03-31T22:00:37.364Z,13.00
2023-03-31T22:05:41.011Z,13.00
2023-03-31T22:10:49.736Z,13.00
2023-03-31T22:15:52.909Z,13.00
2023-03-31T22:20:56.919Z,13.00
2023-03-31T22:26:01.402Z,13.00
2023-03-31T22:31:04.647Z,13.00
2023-03-31T22:36:08.696Z,12.90
2023-03-31T22:41:13.229Z,12.90
2023-03-31T22:46:17.177Z,12.90
2023-03-31T22:51:20.454Z,12.90
2023-03-31T22:56:26.073Z,12.90
2023-03-31T23:01:29.262Z,12.90
2023-03-31T23:06:35.569Z,12.90
2023-03-31T23:11:40.851Z,12.90
2023-03-31T23:16:44.141Z,12.90
2023-03-31T23:21:47.393Z,12.90
2023-03-31T23:26:51.973Z,12.90
2023-03-31T23:31:55.502Z,12.90
2023-03-31T23:36:58.724Z,12.90
2023-03-31T23:42:03.262Z,12.90
2023-03-31T23:47:06.542Z,12.80
2023-03-31T23:52:09.764Z,12.80
2023-03-31T23:57:14.390Z,12.80
